Time;durP1;ratioP1;P1;durP2;ratioP2;P2;SDS_P1;SDS_P2;PMS_P1;PMS_P2;Temp;Humidity;BMP_temperature;BMP_pressure;BME280_temperature;BME280_humidity;BME280_pressure;Samples;Min_cycle;Max_cycle;Signal;HPM_P1;HPM_P2
2022/01/11 00:02:18;;;;;;;51.10;30.65;;;;;;;-1.01;100.00;101950.25;5093701;28;20107;-65
2022/01/11 00:04:43;;;;;;;51.65;28.42;;;;;;;-1.01;100.00;101952.00;5094282;28;20028;-65
2022/01/11 00:07:12;;;;;;;52.83;29.35;;;;;;;-1.03;100.00;101954.53;5094065;28;20028;-65
2022/01/11 00:09:40;;;;;;;48.05;31.33;;;;;;;-1.02;100.00;101963.13;5091260;28;20066;-65
2022/01/11 00:12:08;;;;;;;47.08;29.55;;;;;;;-1.07;100.00;101956.16;5093527;28;20016;-65
2022/01/11 00:14:34;;;;;;;49.30;29.48;;;;;;;-1.02;100.00;101968.28;5093851;28;20036;-65
2022/01/11 00:17:00;;;;;;;60.03;31.70;;;;;;;-1.00;100.00;101974.34;5087673;28;20457;-65
2022/01/11 00:19:26;;;;;;;54.63;32.70;;;;;;;-1.02;100.00;101978.59;5093624;28;20085;-65
2022/01/11 00:21:52;;;;;;;52.80;30.38;;;;;;;-0.99;100.00;101981.25;5093191;28;20047;-65
2022/01/11 00:24:30;;;;;;;52.00;30.50;;;;;;;-1.00;100.00;101977.78;5093865;28;20055;-65
2022/01/11 00:26:57;;;;;;;51.50;30.77;;;;;;;-1.04;100.00;101981.13;5094214;28;20059;-65
2022/01/11 00:29:22;;;;;;;46.05;29.67;;;;;;;-1.05;100.00;101988.00;5058699;28;20476;-65
2022/01/11 00:31:49;;;;;;;43.63;31.38;;;;;;;-1.28;100.00;101937.63;5075658;28;20210;-65
2022/01/11 00:34:17;;;;;;;56.10;32.92;;;;;;;-1.04;100.00;101979.44;5093478;28;20106;-65
2022/01/11 00:36:42;;;;;;;57.63;32.22;;;;;;;-0.97;100.00;101982.13;5093436;28;20024;-65
2022/01/11 00:39:09;;;;;;;51.08;33.85;;;;;;;-0.95;100.00;101983.06;5093392;28;20030;-65
2022/01/11 00:41:40;;;;;;;50.80;30.73;;;;;;;-0.91;100.00;101979.72;5093403;28;20089;-65
2022/01/11 00:44:06;;;;;;;54.40;33.08;;;;;;;-0.89;100.00;101990.94;5093534;28;20473;-65
2022/01/11 00:46:32;;;;;;;50.60;32.65;;;;;;;-0.90;100.00;101977.16;5093301;28;20115;-65
2022/01/11 00:48:57;;;;;;;55.47;34.00;;;;;;;-0.86;100.00;101989.28;5093473;28;20115;-65
2022/01/11 00:51:22;;;;;;;56.05;33.50;;;;;;;-0.85;100.00;101990.16;5093414;28;20504;-65
2022/01/11 00:53:48;;;;;;;59.60;34.10;;;;;;;-0.83;100.00;101985.91;5092743;28;20047;-64
2022/01/11 00:56:13;;;;;;;77.10;34.28;;;;;;;-0.83;100.00;101986.78;5093211;28;20032;-65
2022/01/11 00:58:39;;;;;;;54.92;34.78;;;;;;;-0.82;100.00;101991.09;5092863;28;20035;-65
2022/01/11 01:01:04;;;;;;;61.13;34.92;;;;;;;-0.85;100.00;101992.75;5093427;28;20130;-64
2022/01/11 01:03:29;;;;;;;68.05;36.08;;;;;;;-1.01;100.00;101967.47;5093528;28;20394;-64
2022/01/11 01:05:55;;;;;;;56.85;34.85;;;;;;;-0.89;100.00;102007.28;5093166;28;20054;-64
2022/01/11 01:08:21;;;;;;;60.47;34.88;;;;;;;-0.89;100.00;102022.75;5092944;28;20386;-64
2022/01/11 01:10:47;;;;;;;75.15;37.90;;;;;;;-1.24;100.00;101959.19;5092977;28;20063;-64
2022/01/11 01:13:18;;;;;;;57.90;34.22;;;;;;;-0.94;100.00;102013.16;5093290;28;20059;-64
2022/01/11 01:15:47;;;;;;;62.25;36.47;;;;;;;-0.94;100.00;102018.31;5093075;28;20067;-64
2022/01/11 01:18:17;;;;;;;51.25;33.95;;;;;;;-0.95;100.00;102025.22;5089981;28;20417;-65
2022/01/11 01:20:44;;;;;;;66.30;36.08;;;;;;;-0.96;100.00;102046.66;5092728;28;20028;-64
2022/01/11 01:23:09;;;;;;;85.97;37.67;;;;;;;-0.91;100.00;102036.47;5092699;28;20028;-64
2022/01/11 01:25:35;;;;;;;55.85;33.85;;;;;;;-0.95;100.00;102038.09;5092792;28;20024;-64
2022/01/11 01:28:00;;;;;;;60.00;34.85;;;;;;;-0.94;100.00;102028.63;5092625;28;20030;-64
2022/01/11 01:30:25;;;;;;;56.42;33.53;;;;;;;-0.92;100.00;102032.13;5092747;28;20099;-64
2022/01/11 01:32:52;;;;;;;63.70;37.53;;;;;;;-1.06;100.00;102014.66;5094798;28;20110;-64
2022/01/11 01:35:19;;;;;;;65.38;34.85;;;;;;;-0.95;100.00;102027.78;5112756;28;20035;-64
2022/01/11 01:37:45;;;;;;;53.55;36.13;;;;;;;-0.91;100.00;102033.91;5097012;28;20129;-64
2022/01/11 01:40:12;;;;;;;56.35;35.42;;;;;;;-0.96;100.00;102020.00;5096969;28;20425;-65
2022/01/11 01:42:38;;;;;;;60.55;35.15;;;;;;;-1.38;100.00;101939.94;5097073;28;20024;-64
2022/01/11 01:45:04;;;;;;;75.28;36.10;;;;;;;-0.95;100.00;102017.47;5097183;28;20024;-64
2022/01/11 01:47:30;;;;;;;79.25;36.42;;;;;;;-0.95;100.00;102024.34;5095687;28;20863;-64
2022/01/11 01:49:56;;;;;;;63.20;35.25;;;;;;;-1.00;100.00;102019.06;5096476;28;20049;-65
2022/01/11 01:52:22;;;;;;;59.00;37.03;;;;;;;-1.04;100.00;102025.84;5095607;28;20044;-65
2022/01/11 01:54:47;;;;;;;51.60;33.00;;;;;;;-1.08;100.00;102025.75;5096778;28;20392;-65
2022/01/11 01:57:13;;;;;;;52.70;34.03;;;;;;;-1.25;100.00;102004.72;5096620;28;20027;-64
2022/01/11 01:59:38;;;;;;;70.78;34.72;;;;;;;-1.12;100.00;102029.97;5076602;28;20073;-66
2022/01/11 02:02:06;;;;;;;62.67;34.47;;;;;;;-1.16;100.00;102017.84;5096247;28;20031;-64
2022/01/11 02:04:32;;;;;;;49.28;31.48;;;;;;;-1.20;100.00;102028.91;5096846;28;20036;-65
2022/01/11 02:06:57;;;;;;;52.00;32.60;;;;;;;-1.23;100.00;102034.00;5092257;28;20032;-64
2022/01/11 02:09:22;;;;;;;60.90;32.40;;;;;;;-1.26;100.00;102033.94;5091943;28;20032;-63
2022/01/11 02:11:48;;;;;;;45.88;31.58;;;;;;;-1.34;100.00;102038.03;5096231;28;20534;-64
2022/01/11 02:14:13;;;;;;;51.60;31.25;;;;;;;-1.36;100.00;102038.81;5096563;28;20036;-64
2022/01/11 02:16:39;;;;;;;66.05;31.88;;;;;;;-1.40;100.00;102032.72;5096605;28;20024;-65
2022/01/11 02:19:05;;;;;;;55.08;31.17;;;;;;;-1.43;100.00;102042.97;5095248;28;20391;-65
2022/01/11 02:21:30;;;;;;;55.35;31.83;;;;;;;-1.63;100.00;102024.44;5096034;28;20032;-64
2022/01/11 02:23:57;;;;;;;51.60;32.08;;;;;;;-1.47;100.00;102055.72;5094063;28;20053;-64
2022/01/11 02:26:22;;;;;;;42.20;28.38;;;;;;;-1.53;100.00;102059.03;5096060;28;20024;-64
2022/01/11 02:28:48;;;;;;;49.15;30.98;;;;;;;-1.55;100.00;102055.53;5096179;28;20024;-64
2022/01/11 02:31:14;;;;;;;53.75;32.70;;;;;;;-1.51;100.00;102059.94;5096128;28;20064;-64
2022/01/11 02:33:46;;;;;;;62.97;32.85;;;;;;;-1.49;100.00;102063.44;5077664;28;20038;-64
2022/01/11 02:36:26;;;;;;;51.00;32.50;;;;;;;-1.85;100.00;102001.50;5095940;28;20443;-64
2022/01/11 02:38:53;;;;;;;51.53;34.13;;;;;;;-1.49;100.00;102063.44;5091670;28;20117;-64
2022/01/11 02:41:20;;;;;;;55.80;34.08;;;;;;;-1.46;100.00;102063.50;5095608;28;20027;-64
2022/01/11 02:43:47;;;;;;;60.97;36.88;;;;;;;-1.41;100.00;102058.44;5094070;28;20481;-63
2022/01/11 02:46:14;;;;;;;54.92;34.00;;;;;;;-1.39;100.00;102065.41;5095750;28;20020;-63
2022/01/11 02:48:39;;;;;;;58.85;35.70;;;;;;;-1.50;100.00;102051.38;5095664;28;20699;-64
2022/01/11 02:51:06;;;;;;;61.38;34.47;;;;;;;-1.38;100.00;102061.97;5095870;28;20043;-64
2022/01/11 02:53:31;;;;;;;58.15;35.25;;;;;;;-1.44;100.00;102041.22;5094079;28;20445;-64
2022/01/11 02:55:57;;;;;;;63.13;33.33;;;;;;;-1.36;100.00;102055.16;5093131;28;20036;-64
2022/01/11 02:58:23;;;;;;;51.92;32.30;;;;;;;-1.64;100.00;102012.38;5095673;28;20482;-64
2022/01/11 03:00:48;;;;;;;63.97;35.10;;;;;;;-1.71;100.00;102009.59;5095731;28;20382;-64
2022/01/11 03:03:22;;;;;;;53.38;34.13;;;;;;;-1.41;100.00;102073.91;5094736;28;20082;-64
2022/01/11 03:05:56;;;;;;;52.50;34.80;;;;;;;-1.41;100.00;102072.22;5095521;28;20028;-64
2022/01/11 03:08:23;;;;;;;55.10;34.95;;;;;;;-1.44;100.00;102072.13;5095215;28;20028;-65
2022/01/11 03:10:50;;;;;;;49.70;32.15;;;;;;;-1.43;100.00;102076.47;5095291;28;20461;-63
2022/01/11 03:13:16;;;;;;;62.05;33.13;;;;;;;-1.44;100.00;102068.69;5077192;28;20043;-64
2022/01/11 03:15:42;;;;;;;54.38;33.33;;;;;;;-1.46;100.00;102060.06;5094569;28;20081;-64
2022/01/11 03:18:08;;;;;;;55.13;32.28;;;;;;;-1.46;100.00;102076.41;5095050;28;20024;-64
2022/01/11 03:20:35;;;;;;;63.20;35.55;;;;;;;-1.48;100.00;102078.03;5094888;28;20028;-64
2022/01/11 03:23:00;;;;;;;56.30;33.33;;;;;;;-1.52;100.00;102073.63;5095057;28;20115;-64
2022/01/11 03:25:26;;;;;;;60.05;35.22;;;;;;;-1.50;100.00;102072.00;5091113;28;20024;-64
2022/01/11 03:27:51;;;;;;;55.45;32.13;;;;;;;-1.72;100.00;102054.22;5094687;28;20381;-63
2022/01/11 03:30:18;;;;;;;57.33;34.10;;;;;;;-1.50;100.00;102084.88;5094710;28;20040;-63
2022/01/11 03:32:43;;;;;;;59.70;34.72;;;;;;;-1.52;100.00;102076.22;5093253;28;20020;-64
2022/01/11 03:35:10;;;;;;;54.17;31.77;;;;;;;-1.51;100.00;102082.25;5094583;28;20532;-64
2022/01/11 03:37:36;;;;;;;50.35;31.83;;;;;;;-1.55;100.00;102083.88;5095066;28;20078;-64
2022/01/11 03:40:03;;;;;;;48.40;30.17;;;;;;;-1.69;100.00;102074.94;5094793;28;20175;-64
2022/01/11 03:42:29;;;;;;;50.28;29.95;;;;;;;-1.69;100.00;102090.38;5076307;28;20024;-64
2022/01/11 03:44:55;;;;;;;53.92;31.70;;;;;;;-1.73;100.00;102093.69;5094784;28;20024;-64
2022/01/11 03:47:20;;;;;;;51.30;30.27;;;;;;;-1.75;100.00;102085.91;5094429;28;20070;-64
2022/01/11 03:49:45;;;;;;;49.75;29.90;;;;;;;-1.75;100.00;102090.19;5093452;28;20024;-64
2022/01/11 03:52:11;;;;;;;51.67;28.92;;;;;;;-1.82;100.00;102094.31;5088123;28;20452;-63
2022/01/11 03:55:11;;;;;;;48.88;31.58;;;;;;;-1.87;100.00;102084.72;5093751;28;20078;-64
2022/01/11 03:57:29;;;;;;;49.33;30.77;;;;;;;-1.89;100.00;102086.41;5091299;28;20047;-65
2022/01/11 03:59:56;;;;;;;52.58;29.90;;;;;;;-1.94;100.00;102095.69;5094328;28;20514;-64
2022/01/11 04:02:23;;;;;;;50.40;29.63;;;;;;;-2.02;100.00;102079.13;5093850;28;20032;-64
2022/01/11 04:04:52;;;;;;;54.03;30.67;;;;;;;-2.09;100.00;102094.41;5094367;28;20411;-64
2022/01/11 04:07:23;;;;;;;53.70;32.15;;;;;;;-2.15;100.00;102090.81;5094448;28;20034;-64
2022/01/11 04:09:50;;;;;;;46.55;30.15;;;;;;;-2.19;100.00;102083.81;5093567;28;20028;-63
2022/01/11 04:12:16;;;;;;;51.70;29.63;;;;;;;-2.19;100.00;102089.84;5093719;28;20084;-63
2022/01/11 04:14:42;;;;;;;48.35;30.08;;;;;;;-2.20;100.00;102094.97;5094125;28;20036;-63
2022/01/11 04:17:07;;;;;;;58.08;33.38;;;;;;;-2.20;100.00;102090.66;5093859;28;20600;-63
2022/01/11 04:19:33;;;;;;;53.83;31.98;;;;;;;-2.15;100.00;102093.38;5093944;28;20027;-63
2022/01/11 04:21:58;;;;;;;62.47;33.10;;;;;;;-2.37;100.00;102048.16;5093745;28;20181;-62
2022/01/11 04:24:24;;;;;;;57.00;31.27;;;;;;;-2.11;100.00;102095.22;5093424;28;20044;-65
2022/01/11 04:26:50;;;;;;;54.83;31.90;;;;;;;-2.10;100.00;102095.28;5093468;28;20036;-64
2022/01/11 04:29:15;;;;;;;52.08;32.03;;;;;;;-2.08;100.00;102096.19;5093966;28;20036;-64
2022/01/11 04:31:40;;;;;;;94.18;34.80;;;;;;;-2.04;100.00;102097.13;5091898;28;20463;-64
2022/01/11 04:34:06;;;;;;;53.30;29.52;;;;;;;-2.03;100.00;102087.72;5092693;28;20153;-64
2022/01/11 04:36:33;;;;;;;72.00;32.13;;;;;;;-2.01;100.00;102097.22;5093645;28;20058;-63
2022/01/11 04:38:59;;;;;;;54.28;30.52;;;;;;;-1.98;100.00;102092.16;5093587;28;20529;-63
2022/01/11 04:41:25;;;;;;;56.03;32.95;;;;;;;-1.93;100.00;102085.44;5090321;28;20052;-63
2022/01/11 04:43:50;;;;;;;48.67;31.27;;;;;;;-2.20;100.00;102046.91;5093747;28;20063;-62
2022/01/11 04:46:18;;;;;;;48.35;30.65;;;;;;;-1.93;100.00;102090.59;5093487;28;20475;-63
2022/01/11 04:48:45;;;;;;;56.50;32.08;;;;;;;-1.98;100.00;102089.56;5090849;28;20120;-63
2022/01/11 04:51:10;;;;;;;58.38;33.80;;;;;;;-1.95;100.00;102091.34;5091732;28;20032;-62
2022/01/11 04:53:35;;;;;;;54.55;31.05;;;;;;;-1.95;100.00;102091.34;5092519;28;20088;-63
2022/01/11 04:56:01;;;;;;;50.58;31.65;;;;;;;-2.23;100.00;102051.97;5092001;28;20050;-63
2022/01/11 04:58:26;;;;;;;54.05;30.83;;;;;;;-1.96;100.00;102102.50;5089243;28;20099;-62
2022/01/11 05:00:52;;;;;;;57.08;33.20;;;;;;;-1.98;100.00;102092.16;5066453;28;20512;-63
2022/01/11 05:03:20;;;;;;;51.45;31.67;;;;;;;-2.04;100.00;102080.81;5088194;28;20051;-63
2022/01/11 05:05:46;;;;;;;56.05;30.92;;;;;;;-2.45;100.00;102012.72;5083876;28;20158;-62
2022/01/11 05:08:12;;;;;;;54.08;31.90;;;;;;;-2.02;100.00;102099.72;5089528;28;20031;-63
2022/01/11 05:10:42;;;;;;;60.47;33.60;;;;;;;-2.08;100.00;102083.31;5092909;28;20020;-63
2022/01/11 05:13:12;;;;;;;65.40;32.38;;;;;;;-2.11;100.00;102084.91;5093288;28;20032;-62
2022/01/11 05:15:38;;;;;;;52.13;32.08;;;;;;;-2.09;100.00;102089.28;5091247;28;20058;-62
2022/01/11 05:18:04;;;;;;;49.33;31.73;;;;;;;-2.15;100.00;102089.09;5093150;28;20039;-62
2022/01/11 05:20:29;;;;;;;55.55;31.20;;;;;;;-2.16;100.00;102095.06;5108423;28;20028;-62
2022/01/11 05:22:55;;;;;;;53.67;32.30;;;;;;;-2.26;100.00;102080.19;5092774;28;20024;-63
2022/01/11 05:25:21;;;;;;;51.95;30.55;;;;;;;-2.24;100.00;102094.00;5093247;28;20031;-63
2022/01/11 05:27:46;;;;;;;46.10;28.90;;;;;;;-2.27;100.00;102093.91;5092817;28;20062;-63
2022/01/11 05:30:13;;;;;;;59.80;33.42;;;;;;;-2.29;100.00;102084.38;5092570;28;20062;-63
2022/01/11 05:32:38;;;;;;;48.92;30.58;;;;;;;-2.28;100.00;102092.16;5091743;28;20055;-63
2022/01/11 05:35:06;;;;;;;57.55;32.20;;;;;;;-2.30;100.00;102093.78;5092487;28;20066;-63
2022/01/11 05:37:31;;;;;;;52.90;31.80;;;;;;;-2.93;100.00;102002.75;5089638;28;20051;-63
2022/01/11 05:39:58;;;;;;;58.70;31.23;;;;;;;-2.30;100.00;102104.09;5092436;28;20478;-63
2022/01/11 05:42:24;;;;;;;49.00;30.70;;;;;;;-2.29;100.00;102107.53;5093002;28;20107;-63
2022/01/11 05:44:49;;;;;;;49.55;28.77;;;;;;;-2.31;100.00;102099.78;5093152;28;20431;-63
2022/01/11 05:47:15;;;;;;;52.17;29.75;;;;;;;-2.32;100.00;102105.75;5092625;28;20611;-63
2022/01/11 05:49:40;;;;;;;49.60;28.52;;;;;;;-2.37;100.00;102107.34;5092781;28;20028;-63
2022/01/11 05:52:06;;;;;;;52.58;30.00;;;;;;;-2.75;100.00;102035.84;5073607;28;20483;-63
2022/01/11 05:54:32;;;;;;;44.65;30.02;;;;;;;-2.39;100.00;102108.97;5090821;28;20035;-63
2022/01/11 05:56:57;;;;;;;48.72;29.73;;;;;;;-2.48;100.00;102097.53;5092819;28;20040;-63
2022/01/11 05:59:22;;;;;;;46.05;27.98;;;;;;;-2.41;100.00;102115.78;5092689;28;20132;-63
2022/01/11 06:01:48;;;;;;;48.10;28.70;;;;;;;-2.50;100.00;102110.34;5092714;28;20074;-63
2022/01/11 06:04:13;;;;;;;41.20;27.77;;;;;;;-2.80;100.00;102058.84;5088820;28;20039;-63
2022/01/11 06:06:38;;;;;;;47.75;28.02;;;;;;;-2.51;100.00;102108.63;5068101;28;20544;-63
2022/01/11 06:09:04;;;;;;;46.60;27.92;;;;;;;-2.53;100.00;102120.53;5092301;28;20031;-63
2022/01/11 06:11:30;;;;;;;45.08;28.05;;;;;;;-2.57;100.00;102111.00;5074386;28;20042;-63
2022/01/11 06:13:55;;;;;;;42.03;26.60;;;;;;;-2.61;100.00;102122.03;5092964;28;20107;-63
2022/01/11 06:16:21;;;;;;;45.50;28.23;;;;;;;-2.62;100.00;102125.41;5074310;28;20035;-63
2022/01/11 06:18:47;;;;;;;41.42;27.48;;;;;;;-2.64;100.00;102119.38;5092936;28;20020;-63
2022/01/11 06:21:13;;;;;;;43.72;27.63;;;;;;;-2.64;100.00;102121.94;5095725;28;20027;-63
2022/01/11 06:23:38;;;;;;;43.22;26.70;;;;;;;-2.61;100.00;102122.03;5096690;28;20024;-63
2022/01/11 06:26:03;;;;;;;44.58;27.42;;;;;;;-2.59;100.00;102120.38;5090250;28;20032;-63
2022/01/11 06:28:29;;;;;;;45.10;26.88;;;;;;;-2.58;100.00;102127.28;5078163;28;20039;-63
2022/01/11 06:30:54;;;;;;;43.85;26.33;;;;;;;-2.59;100.00;102122.94;5095560;28;20024;-63
2022/01/11 06:33:20;;;;;;;37.92;26.58;;;;;;;-2.56;100.00;102128.19;5072811;28;20035;-63
2022/01/11 06:35:45;;;;;;;44.38;26.95;;;;;;;-2.54;100.00;102121.41;5092908;28;20039;-63
2022/01/11 06:38:11;;;;;;;45.15;26.98;;;;;;;-2.50;100.00;102124.94;5095979;28;20047;-63
2022/01/11 06:40:36;;;;;;;42.85;27.33;;;;;;;-2.53;100.00;102128.25;5094673;28;20032;-63
2022/01/11 06:43:01;;;;;;;40.88;27.20;;;;;;;-2.53;100.00;102135.13;5067123;28;20074;-63
2022/01/11 06:45:27;;;;;;;36.67;24.88;;;;;;;-2.53;100.00;102146.28;5095625;28;20135;-63
2022/01/11 06:47:53;;;;;;;48.22;27.10;;;;;;;-2.55;100.00;102147.06;5096024;28;20031;-63
2022/01/11 06:50:19;;;;;;;38.55;24.85;;;;;;;-2.58;100.00;102153.00;5095413;28;20024;-63
2022/01/11 06:52:45;;;;;;;39.53;25.23;;;;;;;-2.62;100.00;102151.16;5089999;28;20073;-63
2022/01/11 06:55:10;;;;;;;39.60;25.95;;;;;;;-2.65;100.00;102151.06;5081891;28;20032;-63
2022/01/11 06:57:36;;;;;;;40.33;24.13;;;;;;;-2.68;100.00;102150.97;5095127;28;20044;-63
2022/01/11 07:00:04;;;;;;;41.03;25.15;;;;;;;-2.68;100.00;102158.69;5095450;28;20032;-63
2022/01/11 07:02:30;;;;;;;38.10;24.55;;;;;;;-2.68;100.00;102158.69;5095340;28;20016;-63
2022/01/11 07:04:56;;;;;;;38.88;24.60;;;;;;;-2.70;100.00;102158.63;5095022;28;20027;-63
2022/01/11 07:07:22;;;;;;;38.53;25.60;;;;;;;-2.70;100.00;102157.72;5095370;28;20394;-63
2022/01/11 07:09:47;;;;;;;36.42;23.00;;;;;;;-3.06;100.00;102106.00;5095620;28;20031;-63
2022/01/11 07:12:13;;;;;;;40.30;24.35;;;;;;;-2.81;100.00;102157.41;5093616;28;20024;-63
2022/01/11 07:14:38;;;;;;;40.17;25.50;;;;;;;-2.87;100.00;102151.22;5093177;28;20032;-63
2022/01/11 07:17:03;;;;;;;37.58;24.70;;;;;;;-2.81;100.00;102156.53;5093945;28;20066;-63
2022/01/11 07:19:29;;;;;;;40.30;26.95;;;;;;;-2.82;100.00;102159.94;5094872;28;20024;-64
2022/01/11 07:21:58;;;;;;;41.42;26.75;;;;;;;-2.79;100.00;102175.44;5094471;28;20432;-63
2022/01/11 07:24:24;;;;;;;41.08;25.80;;;;;;;-2.79;100.00;102183.16;5094828;28;20036;-63
2022/01/11 07:26:50;;;;;;;34.30;24.95;;;;;;;-2.82;100.00;102189.09;5094746;28;20106;-63
2022/01/11 07:29:15;;;;;;;43.97;25.48;;;;;;;-2.80;100.00;102197.72;5095112;28;20028;-63
2022/01/11 07:31:41;;;;;;;43.70;24.60;;;;;;;-3.06;100.00;102153.97;5094158;28;20063;-63
2022/01/11 07:34:08;;;;;;;39.92;25.52;;;;;;;-2.74;100.00;102202.22;5091852;28;20040;-63
2022/01/11 07:36:34;;;;;;;37.55;24.75;;;;;;;-2.79;100.00;102188.31;5093503;28;20028;-63
2022/01/11 07:38:59;;;;;;;32.80;23.33;;;;;;;-2.73;100.00;102193.66;5109670;28;20153;-63
2022/01/11 07:41:25;;;;;;;37.45;24.02;;;;;;;-2.71;100.00;102197.16;5092702;28;20122;-63
2022/01/11 07:43:50;;;;;;;36.40;23.02;;;;;;;-3.04;100.00;102140.34;5093642;28;20024;-63
2022/01/11 07:46:15;;;;;;;38.45;25.25;;;;;;;-2.66;100.00;102200.75;5092901;28;20398;-63
2022/01/11 07:48:41;;;;;;;41.20;24.48;;;;;;;-2.65;100.00;102212.78;5093544;28;20154;-63
2022/01/11 07:51:07;;;;;;;37.33;23.80;;;;;;;-2.63;100.00;102221.41;5093277;28;20078;-63
2022/01/11 07:53:32;;;;;;;33.97;22.48;;;;;;;-3.08;100.00;102142.78;5093115;28;20028;-62
2022/01/11 07:55:58;;;;;;;32.30;21.75;;;;;;;-2.64;100.00;102214.53;5088130;28;20032;-63
2022/01/11 07:58:23;;;;;;;40.42;23.73;;;;;;;-2.62;100.00;102228.31;5092895;28;20028;-64
2022/01/11 08:00:48;;;;;;;34.88;22.55;;;;;;;-2.61;100.00;102232.66;5091976;28;20051;-63
2022/01/11 08:03:14;;;;;;;40.50;23.90;;;;;;;-2.59;100.00;102233.56;5092446;28;20028;-63
2022/01/11 08:05:39;;;;;;;37.20;23.52;;;;;;;-2.81;100.00;102200.25;5093098;28;20032;-63
2022/01/11 08:08:05;;;;;;;33.22;22.05;;;;;;;-2.55;100.00;102244.81;5093145;28;20099;-63
2022/01/11 08:10:31;;;;;;;32.70;21.10;;;;;;;-2.55;100.00;102253.44;5094129;28;20028;-63
2022/01/11 08:12:56;;;;;;;37.78;21.90;;;;;;;-2.57;100.00;102247.38;5091280;28;20032;-63
2022/01/11 08:15:22;;;;;;;35.33;22.33;;;;;;;-2.86;100.00;102204.34;5091862;28;20077;-63
2022/01/11 08:17:47;;;;;;;34.95;23.20;;;;;;;-2.72;100.00;102221.13;5086560;28;20067;-63
2022/01/11 08:20:13;;;;;;;32.00;23.08;;;;;;;-2.50;100.00;102254.44;5092932;28;20103;-63
2022/01/11 08:22:39;;;;;;;37.95;24.20;;;;;;;-2.48;100.00;102247.66;5093467;28;20039;-63
2022/01/11 08:25:06;;;;;;;32.75;22.42;;;;;;;-2.45;100.00;102245.19;5092747;28;20024;-63
2022/01/11 08:27:33;;;;;;;33.88;22.27;;;;;;;-2.40;100.00;102251.31;5090106;28;20060;-63
2022/01/11 08:29:59;;;;;;;39.50;23.70;;;;;;;-2.34;100.00;102256.69;5087426;28;20035;-63
2022/01/11 08:32:24;;;;;;;31.25;21.60;;;;;;;-2.29;100.00;102261.97;5077151;28;20382;-63
2022/01/11 08:34:50;;;;;;;39.10;22.60;;;;;;;-2.24;100.00;102258.75;5075465;28;20852;-63
2022/01/11 08:37:15;;;;;;;36.70;24.27;;;;;;;-2.64;100.00;102188.81;5059886;28;20036;-63
2022/01/11 08:39:42;;;;;;;35.67;23.55;;;;;;;-2.29;100.00;102234.53;5040331;28;20086;-63
2022/01/11 08:42:12;;;;;;;40.30;23.98;;;;;;;-2.10;100.00;102252.31;5064923;28;20020;-63
2022/01/11 08:44:37;;;;;;;41.13;22.98;;;;;;;-2.04;100.00;102246.47;5034377;28;20024;-63
2022/01/11 08:47:03;;;;;;;31.30;21.73;;;;;;;-1.98;100.00;102248.34;5031901;28;20031;-63
2022/01/11 08:49:28;;;;;;;33.40;24.23;;;;;;;-1.93;100.00;102244.22;5062293;28;20852;-63
2022/01/11 08:51:53;;;;;;;34.95;23.52;;;;;;;-1.90;100.00;102249.47;5065561;28;20026;-63
2022/01/11 08:54:23;;;;;;;34.80;24.80;;;;;;;-1.85;100.00;102247.91;5054330;28;20072;-63
2022/01/11 08:56:48;;;;;;;37.88;23.15;;;;;;;-1.81;100.00;102244.59;5049219;28;20032;-63
2022/01/11 08:59:13;;;;;;;37.35;22.30;;;;;;;-1.77;100.00;102246.44;5059947;28;20028;-63
2022/01/11 09:01:39;;;;;;;41.20;22.50;;;;;;;-1.73;100.00;102237.97;5047298;28;20024;-63
2022/01/11 09:04:04;;;;;;;38.40;23.10;;;;;;;-1.70;100.00;102235.47;5046495;28;20063;-63
2022/01/11 09:06:30;;;;;;;37.45;23.92;;;;;;;-1.58;100.00;102238.41;5054761;28;20027;-63
2022/01/11 09:08:55;;;;;;;36.63;24.77;;;;;;;-1.51;100.00;102247.19;5056468;28;20020;-63
2022/01/11 09:11:20;;;;;;;38.15;23.00;;;;;;;-1.58;100.00;102222.94;5046026;28;20032;-63
2022/01/11 09:13:46;;;;;;;37.67;22.52;;;;;;;-1.38;100.00;102247.56;5047999;28;20032;-63
2022/01/11 09:16:12;;;;;;;35.60;23.45;;;;;;;-1.50;100.00;102221.47;5058258;28;20821;-63
2022/01/11 09:18:38;;;;;;;29.17;20.42;;;;;;;-1.32;100.00;102241.72;5059713;28;20020;-63
2022/01/11 09:21:04;;;;;;;29.98;22.10;;;;;;;-1.31;100.00;102248.59;5048191;28;20257;-63
2022/01/11 09:23:30;;;;;;;33.70;20.60;;;;;;;-1.31;100.00;102236.59;5057449;28;20816;-63
2022/01/11 09:25:56;;;;;;;37.58;21.33;;;;;;;-1.45;100.00;102214.72;5048150;28;20028;-63
2022/01/11 09:28:22;;;;;;;32.92;21.67;;;;;;;-1.30;100.00;102243.50;5047244;28;20039;-63
2022/01/11 09:30:48;;;;;;;28.58;20.45;;;;;;;-1.23;100.00;102254.88;5051916;28;20128;-63
2022/01/11 09:33:13;;;;;;;29.88;20.98;;;;;;;-1.23;100.00;102253.16;5053624;28;20886;-63
2022/01/11 09:35:39;;;;;;;31.55;21.13;;;;;;;-1.21;100.00;102248.03;5057252;28;20028;-63
2022/01/11 09:38:04;;;;;;;30.48;20.77;;;;;;;-1.15;100.00;102251.66;5053662;28;20034;-63
2022/01/11 09:40:30;;;;;;;31.27;20.77;;;;;;;-1.11;100.00;102258.63;5053930;28;20057;-63
2022/01/11 09:42:55;;;;;;;31.13;20.23;;;;;;;-1.21;100.00;102230.84;5064886;28;20024;-63
2022/01/11 09:45:21;;;;;;;35.08;20.90;;;;;;;-1.06;100.00;102261.34;5077712;28;20043;-62
2022/01/11 09:47:47;;;;;;;32.58;21.48;;;;;;;-1.04;100.00;102255.41;5084667;28;20118;-63
2022/01/11 09:50:14;;;;;;;37.80;22.00;;;;;;;-0.99;100.00;102249.50;5065199;28;20043;-63
2022/01/11 09:52:40;;;;;;;29.25;20.15;;;;;;;-0.93;100.00;102253.09;5072289;28;20032;-63
2022/01/11 09:55:10;;;;;;;40.28;22.15;;;;;;;-0.99;100.00;102241.75;5059388;28;20146;-63
2022/01/11 09:57:35;;;;;;;35.38;21.48;;;;;;;-0.81;100.00;102258.56;5075445;28;20020;-63
2022/01/11 10:00:01;;;;;;;34.53;19.90;;;;;;;-0.72;100.00;102265.69;5087567;28;20019;-63
2022/01/11 10:02:27;;;;;;;31.95;21.48;;;;;;;-0.60;100.00;102263.41;5074230;28;20880;-63
2022/01/11 10:04:58;;;;;;;29.67;21.77;;;;;;;-0.54;100.00;102268.72;5081952;28;20040;-63
2022/01/11 10:07:33;;;;;;;36.53;23.77;;;;;;;-0.42;100.00;102273.31;5053632;28;20634;-63
2022/01/11 10:09:59;;;;;;;38.53;24.83;;;;;;;-0.34;100.00;102272.69;5098965;28;20051;-63
2022/01/11 10:12:26;;;;;;;40.03;25.05;;;;;;;-0.27;100.00;102271.97;5066443;28;20127;-63
2022/01/11 10:14:56;;;;;;;39.92;26.80;;;;;;;-0.21;100.00;102271.28;5077718;28;20152;-64
2022/01/11 10:17:27;;;;;;;41.22;24.92;;;;;;;-0.21;100.00;102269.56;5082739;28;20853;-63
2022/01/11 10:20:11;;;;;;;36.22;24.00;;;;;;;-0.14;100.00;102275.75;5072799;28;20070;-65
2022/01/11 10:22:50;;;;;;;29.80;22.20;;;;;;;-0.07;100.00;102283.66;5079172;28;20036;-64
2022/01/11 10:25:16;;;;;;;38.25;23.20;;;;;;;0.00;100.00;102282.97;5089234;28;20073;-63
2022/01/11 10:27:41;;;;;;;38.33;24.08;;;;;;;0.08;100.00;102282.28;5077671;28;20268;-64
2022/01/11 10:30:09;;;;;;;37.65;22.33;;;;;;;0.17;100.00;102288.50;5071948;28;20036;-63
2022/01/11 10:32:42;;;;;;;34.97;22.63;;;;;;;0.27;100.00;102284.44;5044672;28;20162;-63
2022/01/11 10:35:11;;;;;;;29.85;21.05;;;;;;;0.36;100.00;102284.63;5058361;28;20127;-63
2022/01/11 10:37:40;;;;;;;33.67;21.92;;;;;;;0.44;100.00;102285.69;5050224;28;20041;-64
2022/01/11 10:40:09;;;;;;;29.95;22.02;;;;;;;0.51;100.00;102279.78;5053911;28;20032;-64
2022/01/11 10:42:38;;;;;;;34.28;20.88;;;;;;;0.54;100.00;102277.28;5051440;28;20059;-64
2022/01/11 10:45:12;;;;;;;33.15;20.30;;;;;;;0.60;100.00;102276.53;5053749;28;20029;-63
2022/01/11 10:47:40;;;;;;;30.38;20.73;;;;;;;0.65;100.00;102282.66;5069995;28;20028;-63
2022/01/11 10:50:28;;;;;;;30.90;20.23;;;;;;;0.73;100.00;102287.16;5040470;28;20020;-63
2022/01/11 10:52:59;;;;;;;22.38;18.13;;;;;;;0.81;100.00;102274.38;5071432;28;20020;-64
2022/01/11 10:55:26;;;;;;;28.23;18.95;;;;;;;0.91;100.00;102282.31;5082239;28;20032;-64
2022/01/11 10:57:58;;;;;;;28.88;17.90;;;;;;;1.00;100.00;102271.28;5087315;28;20032;-64
2022/01/11 11:00:30;;;;;;;26.35;16.83;;;;;;;1.09;100.00;102278.34;5070778;28;20046;-64